createdAt,value
2022-08-08T00:02:03.854Z,101331.41
2022-08-08T00:04:59.362Z,101324.50
2022-08-08T00:08:09.236Z,101332.44
2022-08-08T00:11:22.132Z,101325.38
2022-08-08T00:14:48.503Z,101331.31
2022-08-08T00:18:04.211Z,101323.38
2022-08-08T00:21:08.161Z,101331.56
2022-08-08T00:24:17.734Z,101327.88
2022-08-08T00:27:23.855Z,101334.88
2022-08-08T00:30:45.257Z,101328.88
2022-08-08T00:34:34.892Z,101324.13
2022-08-08T00:37:47.414Z,101332.91
2022-08-08T00:41:54.516Z,101323.13
2022-08-08T00:45:32.137Z,101327.31
2022-08-08T00:49:32.176Z,101337.88
2022-08-08T00:52:58.331Z,101340.72
2022-08-08T00:56:19.787Z,101318.19
2022-08-08T00:59:56.927Z,101321.78
2022-08-08T01:04:02.128Z,101318.78
2022-08-08T01:07:55.815Z,101323.63
2022-08-08T01:11:24.316Z,101324.13
2022-08-08T01:15:10.793Z,101329.75
2022-08-08T01:19:02.642Z,101320.47
2022-08-08T01:22:46.855Z,101328.00
2022-08-08T01:26:24.131Z,101324.03
2022-08-08T01:29:58.699Z,101325.88
2022-08-08T01:33:42.878Z,101341.22
2022-08-08T01:37:21.669Z,101333.56
2022-08-08T01:40:47.290Z,101335.72
2022-08-08T01:43:55.670Z,101322.34
2022-08-08T01:48:15.737Z,101325.78
2022-08-08T01:50:53.350Z,101324.09
2022-08-08T01:55:16.348Z,101314.91
2022-08-08T01:58:11.347Z,101320.59
2022-08-08T02:01:15.766Z,101321.84
2022-08-08T02:04:30.223Z,101322.75
2022-08-08T02:07:51.882Z,101324.16
2022-08-08T02:11:03.907Z,101312.16
2022-08-08T02:14:13.379Z,101312.22
2022-08-08T02:17:20.823Z,101309.69
2022-08-08T02:21:02.388Z,101323.66
2022-08-08T02:23:58.031Z,101331.78
2022-08-08T02:27:08.118Z,101312.66
2022-08-08T02:30:21.535Z,101324.09
2022-08-08T02:34:08.580Z,101321.78
2022-08-08T02:37:52.217Z,101315.66
2022-08-08T02:40:57.904Z,101310.81
2022-08-08T02:44:37.407Z,101315.03
2022-08-08T02:48:29.113Z,101328.19
2022-08-08T02:52:02.137Z,101325.66
2022-08-08T02:55:31.962Z,101316.72
2022-08-08T03:00:01.644Z,101316.81
2022-08-08T03:05:04.494Z,101319.91
2022-08-08T03:07:58.489Z,101319.13
2022-08-08T03:11:59.783Z,101311.13
2022-08-08T03:16:01.581Z,101314.06
2022-08-08T03:18:52.246Z,101324.25
2022-08-08T03:21:58.926Z,101323.22
2022-08-08T03:25:14.677Z,101319.97
2022-08-08T03:28:27.644Z,101316.19
2022-08-08T03:32:06.340Z,101329.56
2022-08-08T03:35:11.094Z,101309.25
2022-08-08T03:38:53.438Z,101327.44
2022-08-08T03:42:27.355Z,101313.91
2022-08-08T03:46:05.640Z,101316.88
2022-08-08T03:49:09.633Z,101322.38
2022-08-08T03:51:52.478Z,101326.78
2022-08-08T03:55:10.708Z,101330.81
2022-08-08T03:58:34.814Z,101331.97
2022-08-08T04:02:13.129Z,101329.03
2022-08-08T04:05:10.282Z,101334.09
2022-08-08T04:08:33.208Z,101336.34
2022-08-08T04:11:58.085Z,101337.88
2022-08-08T04:15:02.590Z,101343.53
2022-08-08T04:18:05.840Z,101344.44
2022-08-08T04:21:08.640Z,101339.69
2022-08-08T04:24:18.999Z,101345.84
2022-08-08T04:28:02.478Z,101352.78
2022-08-08T04:30:46.467Z,101351.59
2022-08-08T04:33:49.990Z,101352.19
2022-08-08T04:36:52.501Z,101355.00
2022-08-08T04:40:05.197Z,101360.75
2022-08-08T04:43:10.396Z,101361.28
2022-08-08T04:46:14.978Z,101373.75
2022-08-08T04:49:17.585Z,101377.63
2022-08-08T04:52:25.241Z,101377.66
2022-08-08T04:55:47.519Z,101377.94
2022-08-08T04:58:58.342Z,101390.03
2022-08-08T05:02:02.260Z,101395.28
2022-08-08T05:05:05.409Z,101392.03
2022-08-08T05:08:18.539Z,101394.22
2022-08-08T05:11:29.543Z,101399.53
2022-08-08T05:14:41.778Z,101401.56
2022-08-08T05:17:54.260Z,101404.34
2022-08-08T05:20:57.258Z,101398.94
2022-08-08T05:24:04.208Z,101398.59
2022-08-08T05:27:07.949Z,101399.94
2022-08-08T05:30:12.121Z,101412.81
2022-08-08T05:33:16.868Z,101408.63
2022-08-08T05:36:28.086Z,101397.91
2022-08-08T05:39:35.138Z,101400.84
2022-08-08T05:42:41.908Z,101403.22
2022-08-08T05:45:54.810Z,101406.19
2022-08-08T05:48:59.141Z,101414.72
2022-08-08T05:52:03.714Z,101415.06
2022-08-08T05:55:10.670Z,101423.63
2022-08-08T05:58:19.890Z,101424.72
2022-08-08T06:01:52.451Z,101416.94
2022-08-08T06:04:57.470Z,101420.03
2022-08-08T06:08:02.798Z,101424.03
2022-08-08T06:11:13.453Z,101415.19
2022-08-08T06:14:20.601Z,101419.59
2022-08-08T06:17:51.410Z,101418.16
2022-08-08T06:20:55.496Z,101423.34
2022-08-08T06:24:04.873Z,101431.34
2022-08-08T06:27:11.551Z,101425.19
2022-08-08T06:30:20.187Z,101425.22
2022-08-08T06:34:26.427Z,101431.50
2022-08-08T06:37:24.112Z,101428.28
2022-08-08T06:40:32.180Z,101431.47
2022-08-08T06:43:37.456Z,101432.53
2022-08-08T06:46:40.158Z,101429.72
2022-08-08T06:49:54.892Z,101442.91
2022-08-08T06:53:01.909Z,101450.75
2022-08-08T06:56:16.985Z,101454.31
2022-08-08T06:59:19.532Z,101450.06
2022-08-08T07:02:28.841Z,101448.63
2022-08-08T07:05:40.307Z,101449.06
2022-08-08T07:08:49.478Z,101455.72
2022-08-08T07:11:58.330Z,101460.69
2022-08-08T07:15:05.989Z,101453.56
2022-08-08T07:18:36.698Z,101452.28
2022-08-08T07:21:42.130Z,101453.97
2022-08-08T07:24:53.501Z,101465.81
2022-08-08T07:28:02.882Z,101471.22
2022-08-08T07:31:11.223Z,101476.75
2022-08-08T07:34:20.333Z,101473.41
2022-08-08T07:37:56.298Z,101480.63
2022-08-08T07:41:04.344Z,101491.31
2022-08-08T07:44:34.150Z,101500.63
2022-08-08T07:47:38.844Z,101494.06
2022-08-08T07:50:43.996Z,101496.66
2022-08-08T07:54:02.607Z,101498.47
2022-08-08T07:57:21.133Z,101496.44
2022-08-08T08:00:28.229Z,101503.41
2022-08-08T08:03:41.398Z,101500.25
2022-08-08T08:06:47.203Z,101499.81
2022-08-08T08:09:49.913Z,101501.22
2022-08-08T08:12:59.168Z,101507.06
2022-08-08T08:16:05.850Z,101506.69
2022-08-08T08:19:12.623Z,101516.59
2022-08-08T08:22:25.432Z,101526.28
2022-08-08T08:25:43.556Z,101518.13
2022-08-08T08:28:55.880Z,101525.09
2022-08-08T08:31:59.285Z,101531.06
2022-08-08T08:35:07.379Z,101524.56
2022-08-08T08:38:17.637Z,101529.25
2022-08-08T08:41:22.252Z,101530.88
2022-08-08T08:44:28.936Z,101538.97
2022-08-08T08:47:44.678Z,101538.84
2022-08-08T08:50:52.112Z,101538.19
2022-08-08T08:53:59.903Z,101544.44
2022-08-08T08:57:15.402Z,101538.91
2022-08-08T09:00:20.632Z,101534.00
2022-08-08T09:03:46.068Z,101535.63
2022-08-08T09:06:53.861Z,101529.50
2022-08-08T09:09:59.600Z,101542.03
2022-08-08T09:13:09.311Z,101536.22
2022-08-08T09:16:13.719Z,101536.53
2022-08-08T09:19:29.140Z,101527.66
2022-08-08T09:22:40.325Z,101537.88
2022-08-08T09:25:54.671Z,101533.41
2022-08-08T09:29:08.203Z,101533.72
2022-08-08T09:32:19.446Z,101529.59
2022-08-08T09:35:32.301Z,101527.94
2022-08-08T09:38:53.173Z,101532.38
2022-08-08T09:42:20.019Z,101526.94
2022-08-08T09:45:54.661Z,101535.06
2022-08-08T09:48:57.040Z,101532.75
2022-08-08T09:52:07.094Z,101529.44
2022-08-08T09:55:12.834Z,101530.47
2022-08-08T09:58:27.913Z,101542.34
2022-08-08T10:01:59.711Z,101530.97
2022-08-08T10:05:15.299Z,101529.19
2022-08-08T10:08:18.000Z,101522.97
2022-08-08T10:12:27.084Z,101508.72
2022-08-08T10:14:43.600Z,101511.66
2022-08-08T10:18:06.566Z,101517.41
2022-08-08T10:21:25.714Z,101514.69
2022-08-08T10:24:35.194Z,101512.31
2022-08-08T10:27:42.981Z,101513.13
2022-08-08T10:31:00.461Z,101513.50
2022-08-08T10:34:19.044Z,101504.22
2022-08-08T10:37:27.620Z,101494.50
2022-08-08T10:40:32.932Z,101494.84
2022-08-08T10:43:40.319Z,101491.38
2022-08-08T10:46:46.187Z,101508.31
2022-08-08T10:50:01.816Z,101505.75
2022-08-08T10:53:11.641Z,101505.88
2022-08-08T10:56:27.902Z,101497.66
2022-08-08T10:59:39.770Z,101495.16
2022-08-08T11:02:43.338Z,101502.09
2022-08-08T11:05:51.911Z,101493.44
2022-08-08T11:09:15.182Z,101490.50
2022-08-08T11:12:23.958Z,101495.34
2022-08-08T11:15:32.262Z,101489.81
2022-08-08T11:18:36.099Z,101492.50
2022-08-08T11:21:45.280Z,101483.03
2022-08-08T11:25:03.099Z,101487.75
2022-08-08T11:28:23.954Z,101475.19
2022-08-08T11:31:46.758Z,101483.13
2022-08-08T11:35:37.498Z,101491.53
2022-08-08T11:38:35.797Z,101479.56
2022-08-08T11:41:44.973Z,101473.41
2022-08-08T11:44:49.346Z,101469.88
2022-08-08T11:48:04.532Z,101468.19
2022-08-08T11:51:38.185Z,101472.78
2022-08-08T11:54:33.891Z,101463.63
2022-08-08T11:57:38.938Z,101464.03
2022-08-08T12:00:45.367Z,101464.41
2022-08-08T12:03:53.943Z,101462.53
2022-08-08T12:07:04.898Z,101466.16
2022-08-08T12:10:18.220Z,101458.66
2022-08-08T12:13:38.194Z,101458.84
2022-08-08T12:16:52.231Z,101461.06
2022-08-08T12:19:57.757Z,101459.19
2022-08-08T12:23:00.417Z,101458.78
2022-08-08T12:26:09.722Z,101458.25
2022-08-08T12:29:40.841Z,101455.03
2022-08-08T12:32:48.081Z,101450.97
2022-08-08T12:35:52.045Z,101457.13
2022-08-08T12:38:55.819Z,101451.28
2022-08-08T12:42:01.885Z,101448.41
2022-08-08T12:45:58.421Z,101447.94
2022-08-08T12:48:37.874Z,101437.72
2022-08-08T12:51:42.243Z,101443.56
2022-08-08T12:55:13.122Z,101440.88
2022-08-08T12:58:19.471Z,101451.44
2022-08-08T13:01:36.337Z,101445.59
2022-08-08T13:04:51.111Z,101446.63
2022-08-08T13:08:03.152Z,101445.94
2022-08-08T13:11:18.906Z,101441.88
2022-08-08T13:14:21.431Z,101431.19
2022-08-08T13:18:08.046Z,101433.47
2022-08-08T13:20:50.090Z,101439.72
2022-08-08T13:23:52.720Z,101437.03
2022-08-08T13:27:02.769Z,101431.47
2022-08-08T13:30:07.202Z,101430.25
2022-08-08T13:33:11.873Z,101428.25
2022-08-08T13:36:26.300Z,101425.66
2022-08-08T13:39:29.293Z,101418.63
2022-08-08T13:42:34.410Z,101426.66
2022-08-08T13:45:37.692Z,101425.03
2022-08-08T13:50:33.415Z,101429.00
2022-08-08T13:52:23.416Z,101428.41
2022-08-08T13:55:36.327Z,101428.25
2022-08-08T13:58:57.500Z,101433.34
2022-08-08T14:02:07.474Z,101429.66
2022-08-08T14:05:20.507Z,101426.88
2022-08-08T14:08:30.550Z,101432.31
2022-08-08T14:11:37.558Z,101422.13
2022-08-08T14:14:43.423Z,101423.50
2022-08-08T14:17:58.983Z,101425.53
2022-08-08T14:21:20.319Z,101414.03
2022-08-08T14:24:31.482Z,101414.91
2022-08-08T14:27:37.588Z,101426.28
2022-08-08T14:30:47.621Z,101422.81
2022-08-08T14:33:54.706Z,101423.75
2022-08-08T14:36:58.686Z,101429.50
2022-08-08T14:40:06.608Z,101427.66
2022-08-08T14:43:22.171Z,101421.88
2022-08-08T14:46:33.060Z,101421.34
2022-08-08T14:49:51.630Z,101417.28
2022-08-08T14:53:04.288Z,101413.97
2022-08-08T14:56:07.530Z,101414.09
2022-08-08T14:59:31.685Z,101415.44
2022-08-08T15:02:35.556Z,101417.50
2022-08-08T15:05:42.962Z,101413.16
2022-08-08T15:08:58.663Z,101414.53
2022-08-08T15:12:01.511Z,101408.06
2022-08-08T15:15:06.894Z,101409.75
2022-08-08T15:18:11.901Z,101414.47
2022-08-08T15:21:14.688Z,101402.88
2022-08-08T15:24:19.908Z,101400.53
2022-08-08T15:28:03.326Z,101408.34
2022-08-08T15:30:48.888Z,101408.00
2022-08-08T15:33:59.877Z,101401.19
2022-08-08T15:37:05.036Z,101405.09
2022-08-08T15:40:10.977Z,101401.75
2022-08-08T15:43:35.383Z,101396.97
2022-08-08T15:46:39.030Z,101411.34
2022-08-08T15:49:49.059Z,101406.22
2022-08-08T15:52:52.610Z,101403.88
2022-08-08T15:55:56.662Z,101412.06
2022-08-08T15:59:01.716Z,101409.75
2022-08-08T16:02:07.926Z,101410.59
2022-08-08T16:05:15.753Z,101412.84
2022-08-08T16:08:20.243Z,101411.06
2022-08-08T16:13:07.388Z,101403.72
2022-08-08T16:14:53.756Z,101409.09
2022-08-08T16:18:06.193Z,101411.44
2022-08-08T16:21:26.477Z,101413.88
2022-08-08T16:24:29.780Z,101404.66
2022-08-08T16:27:35.352Z,101400.97
2022-08-08T16:30:39.556Z,101402.03
2022-08-08T16:33:42.986Z,101403.38
2022-08-08T16:37:00.890Z,101403.19
2022-08-08T16:40:04.154Z,101403.22
2022-08-08T16:43:08.517Z,101402.72
2022-08-08T16:46:44.903Z,101405.69
2022-08-08T16:49:38.478Z,101409.47
2022-08-08T16:55:01.419Z,101414.94
2022-08-08T16:56:08.849Z,101408.47
2022-08-08T16:59:18.308Z,101418.28
2022-08-08T17:02:42.836Z,101416.25
2022-08-08T17:05:45.636Z,101419.78
2022-08-08T17:08:48.236Z,101425.84
2022-08-08T17:11:56.722Z,101428.16
2022-08-08T17:15:17.823Z,101425.97
2022-08-08T17:18:24.910Z,101424.22
2022-08-08T17:21:27.686Z,101423.75
2022-08-08T17:24:34.830Z,101434.81
2022-08-08T17:27:46.413Z,101427.41
2022-08-08T17:30:51.421Z,101423.63
2022-08-08T17:34:52.769Z,101423.72
2022-08-08T17:37:19.311Z,101426.69
2022-08-08T17:40:22.320Z,101415.81
2022-08-08T17:43:26.034Z,101429.75
2022-08-08T17:46:37.282Z,101422.50
2022-08-08T17:49:43.338Z,101433.38
2022-08-08T17:52:47.824Z,101436.41
2022-08-08T17:56:05.411Z,101432.00
2022-08-08T17:59:10.492Z,101435.97
2022-08-08T18:02:18.925Z,101438.66
2022-08-08T18:05:23.991Z,101432.09
2022-08-08T18:08:41.888Z,101436.94
2022-08-08T18:11:51.095Z,101439.13
2022-08-08T18:14:53.804Z,101440.22
2022-08-08T18:18:09.545Z,101451.09
2022-08-08T18:21:34.523Z,101457.59
2022-08-08T18:24:38.228Z,101465.31
2022-08-08T18:27:45.240Z,101466.00
2022-08-08T18:30:47.738Z,101471.56
2022-08-08T18:34:11.378Z,101476.03
2022-08-08T18:37:17.578Z,101479.41
2022-08-08T18:40:36.444Z,101483.41
2022-08-08T18:43:43.091Z,101482.06
2022-08-08T18:46:55.506Z,101487.69
2022-08-08T18:50:02.867Z,101484.53
2022-08-08T18:53:05.722Z,101481.97
2022-08-08T18:56:20.996Z,101492.84
2022-08-08T18:59:24.523Z,101489.25
2022-08-08T19:02:31.643Z,101497.53
2022-08-08T19:05:38.538Z,101502.53
2022-08-08T19:08:48.080Z,101517.00
2022-08-08T19:11:51.506Z,101524.34
2022-08-08T19:14:57.283Z,101525.19
2022-08-08T19:18:32.102Z,101525.31
2022-08-08T19:21:30.699Z,101533.53
2022-08-08T19:24:38.945Z,101534.69
2022-08-08T19:28:00.001Z,101535.59
2022-08-08T19:31:08.902Z,101541.50
2022-08-08T19:34:29.824Z,101542.25
2022-08-08T19:37:43.039Z,101543.56
2022-08-08T19:40:55.775Z,101544.41
2022-08-08T19:44:04.124Z,101549.31
2022-08-08T19:47:15.914Z,101549.06
2022-08-08T19:50:18.487Z,101554.56
2022-08-08T19:53:53.830Z,101551.03
2022-08-08T19:56:48.903Z,101551.53
2022-08-08T19:59:51.774Z,101558.88
2022-08-08T20:02:54.330Z,101561.69
2022-08-08T20:06:14.117Z,101560.31
2022-08-08T20:09:22.793Z,101566.72
2022-08-08T20:12:32.065Z,101561.00
2022-08-08T20:16:00.234Z,101565.16
2022-08-08T20:18:59.812Z,101569.91
2022-08-08T20:22:04.881Z,101569.56
2022-08-08T20:25:20.233Z,101567.38
2022-08-08T20:28:25.339Z,101573.00
2022-08-08T20:31:47.161Z,101574.53
2022-08-08T20:35:01.594Z,101578.09
2022-08-08T20:38:04.639Z,101573.78
2022-08-08T20:41:18.780Z,101580.47
2022-08-08T20:44:21.908Z,101577.59
2022-08-08T20:47:36.025Z,101574.78
2022-08-08T20:50:39.228Z,101571.13
2022-08-08T20:53:58.065Z,101570.09
2022-08-08T20:57:17.378Z,101573.63
2022-08-08T21:00:23.389Z,101571.09
2022-08-08T21:03:26.192Z,101571.53
2022-08-08T21:16:28.725Z,101576.59
2022-08-08T21:19:44.020Z,101574.81
2022-08-08T21:22:50.008Z,101579.31
2022-08-08T21:25:54.837Z,101580.78
2022-08-08T21:29:00.503Z,101587.66
2022-08-08T21:32:05.154Z,101585.56
2022-08-08T21:36:16.577Z,101589.09
2022-08-08T21:38:32.579Z,101585.03
2022-08-08T21:41:42.902Z,101581.41
2022-08-08T21:44:58.143Z,101586.97
2022-08-08T21:48:21.178Z,101587.09
2022-08-08T21:54:18.773Z,101586.44
2022-08-08T21:55:01.826Z,101589.00
2022-08-08T21:58:09.499Z,101589.84
2022-08-08T22:01:27.994Z,101588.06
2022-08-08T22:04:38.683Z,101594.16
2022-08-08T22:07:47.458Z,101597.38
2022-08-08T22:10:51.110Z,101598.13
2022-08-08T22:13:56.847Z,101601.88
2022-08-08T22:17:01.576Z,101600.69
2022-08-08T22:20:12.153Z,101590.31
2022-08-08T22:23:17.503Z,101595.44
2022-08-08T22:26:28.950Z,101598.34
2022-08-08T22:30:00.972Z,101601.03
2022-08-08T22:32:55.638Z,101597.25
2022-08-08T22:36:04.675Z,101599.94
2022-08-08T22:39:19.176Z,101599.09
2022-08-08T22:42:24.176Z,101593.59
2022-08-08T22:45:30.449Z,101586.69
2022-08-08T22:48:32.945Z,101590.88
2022-08-08T22:51:42.474Z,101594.41
2022-08-08T22:55:04.337Z,101590.97
2022-08-08T22:58:08.062Z,101592.44
2022-08-08T23:01:16.573Z,101599.50
2022-08-08T23:04:34.699Z,101599.75
2022-08-08T23:07:49.188Z,101599.81
2022-08-08T23:11:06.322Z,101600.34
2022-08-08T23:14:16.308Z,101603.13
2022-08-08T23:17:19.053Z,101609.22
2022-08-08T23:20:22.205Z,101609.66
2022-08-08T23:23:31.429Z,101609.97
2022-08-08T23:26:35.329Z,101613.28
2022-08-08T23:29:38.402Z,101614.88
2022-08-08T23:32:44.212Z,101611.47
2022-08-08T23:35:58.887Z,101603.44
2022-08-08T23:39:10.459Z,101607.84
2022-08-08T23:42:14.352Z,101608.50
2022-08-08T23:45:19.306Z,101607.09
2022-08-08T23:49:01.796Z,101600.00
2022-08-08T23:52:08.752Z,101605.91
2022-08-08T23:55:22.823Z,101602.91
2022-08-08T23:58:37.175Z,101613.84
